Time,TemperatureF,DewpointF,PressureIn,WindDirection,WindDirectionDegrees,WindSpeedMPH,WindSpeedGustMPH,Humidity,HourlyPrecipIn,Conditions,Clouds,dailyrainin,SolarRadiationWatts/m^2,SoftwareType,DateUTC
2013-06-23 00:02:00,80.3,67.9,29.71,North,360,3.0,12.0,66,0.00,,,0.03,0,HR-IXPWINDi_r2_v1.2.,2013-06-23 05:02:00,
2013-06-23 00:08:00,80.3,67.9,29.70,North,360,2.0,13.0,66,0.00,,,0.03,0,HR-IXPWINDi_r2_v1.2.,2013-06-23 05:08:00,
2013-06-23 00:13:00,80.2,67.8,29.70,North,360,5.0,15.0,66,0.00,,,0.03,0,HR-IXPWINDi_r2_v1.2.,2013-06-23 05:13:00,
2013-06-23 00:18:00,80.2,67.8,29.70,North,360,5.0,15.0,66,0.00,,,0.00,0,HR-IXPWINDi_r2_v1.2.,2013-06-23 05:18:00,
2013-06-23 00:23:00,80.1,67.7,29.69,North,360,6.0,14.0,66,0.00,,,0.00,0,HR-IXPWINDi_r2_v1.2.,2013-06-23 05:23:00,
2013-06-23 00:28:00,80.1,67.2,29.69,North,360,4.0,14.0,65,0.00,,,0.00,0,HR-IXPWINDi_r2_v1.2.,2013-06-23 05:28:00,
2013-06-23 00:34:00,80.0,67.1,29.69,North,360,5.0,12.0,65,0.00,,,0.00,0,HR-IXPWINDi_r2_v1.2.,2013-06-23 05:34:00,
2013-06-23 00:39:00,79.9,67.0,29.69,North,360,9.0,13.0,65,0.00,,,0.00,0,HR-IXPWINDi_r2_v1.2.,2013-06-23 05:39:00,
2013-06-23 00:44:00,79.8,66.9,29.68,North,360,7.0,13.0,65,0.00,,,0.00,0,HR-IXPWINDi_r2_v1.2.,2013-06-23 05:44:00,
2013-06-23 00:49:00,79.6,67.2,29.68,North,360,8.0,14.0,66,0.00,,,0.00,0,HR-IXPWINDi_r2_v1.2.,2013-06-23 05:49:00,
2013-06-23 00:54:00,79.7,67.3,29.68,North,360,6.0,14.0,66,0.00,,,0.00,0,HR-IXPWINDi_r2_v1.2.,2013-06-23 05:54:00,
2013-06-23 01:00:00,79.5,67.5,29.68,North,360,5.0,14.0,67,0.00,,,0.00,0,HR-IXPWINDi_r2_v1.2.,2013-06-23 06:00:00,
2013-06-23 01:05:00,79.4,67.9,29.68,North,360,7.0,14.0,68,0.00,,,0.00,0,HR-IXPWINDi_r2_v1.2.,2013-06-23 06:05:00,
2013-06-23 01:10:00,79.3,67.8,29.68,North,360,5.0,12.0,68,0.00,,,0.00,0,HR-IXPWINDi_r2_v1.2.,2013-06-23 06:10:00,
2013-06-23 01:15:00,79.1,68.0,29.68,North,360,11.0,12.0,69,0.00,,,0.00,0,HR-IXPWINDi_r2_v1.2.,2013-06-23 06:15:00,
2013-06-23 01:21:00,79.0,68.3,29.69,North,360,5.0,11.0,70,0.00,,,0.00,0,HR-IXPWINDi_r2_v1.2.,2013-06-23 06:21:00,
2013-06-23 01:26:00,78.8,68.5,29.69,North,360,4.0,12.0,71,0.00,,,0.00,0,HR-IXPWINDi_r2_v1.2.,2013-06-23 06:26:00,
2013-06-23 01:31:00,78.6,68.8,29.68,North,360,3.0,12.0,72,0.00,,,0.00,0,HR-IXPWINDi_r2_v1.2.,2013-06-23 06:31:00,
2013-06-23 01:36:00,78.5,68.7,29.68,North,360,4.0,16.0,72,0.00,,,0.00,0,HR-IXPWINDi_r2_v1.2.,2013-06-23 06:36:00,
2013-06-23 01:42:00,78.4,69.0,29.69,North,360,5.0,16.0,73,0.00,,,0.00,0,HR-IXPWINDi_r2_v1.2.,2013-06-23 06:42:00,
2013-06-23 01:47:00,78.5,69.1,29.69,North,360,10.0,16.0,73,0.00,,,0.00,0,HR-IXPWINDi_r2_v1.2.,2013-06-23 06:47:00,
2013-06-23 01:52:00,78.4,69.0,29.68,North,360,4.0,16.0,73,0.00,,,0.00,0,HR-IXPWINDi_r2_v1.2.,2013-06-23 06:52:00,
2013-06-23 01:57:00,78.4,69.0,29.68,North,360,3.0,13.0,73,0.00,,,0.00,0,HR-IXPWINDi_r2_v1.2.,2013-06-23 06:57:00,
2013-06-23 02:02:00,78.4,69.0,29.69,North,360,6.0,13.0,73,0.00,,,0.00,0,HR-IXPWINDi_r2_v1.2.,2013-06-23 07:02:00,
2013-06-23 02:08:00,78.3,68.9,29.69,North,360,3.0,17.0,73,0.00,,,0.00,0,HR-IXPWINDi_r2_v1.2.,2013-06-23 07:08:00,
2013-06-23 02:13:00,78.3,68.9,29.68,North,360,6.0,17.0,73,0.00,,,0.00,0,HR-IXPWINDi_r2_v1.2.,2013-06-23 07:13:00,
2013-06-23 02:18:00,78.2,68.8,29.68,North,360,3.0,14.0,73,0.00,,,0.00,0,HR-IXPWINDi_r2_v1.2.,2013-06-23 07:18:00,
2013-06-23 02:23:00,78.2,68.8,29.68,North,360,4.0,12.0,73,0.00,,,0.00,0,HR-IXPWINDi_r2_v1.2.,2013-06-23 07:23:00,
2013-06-23 02:28:00,78.1,68.7,29.69,North,360,8.0,12.0,73,0.00,,,0.00,0,HR-IXPWINDi_r2_v1.2.,2013-06-23 07:28:00,
2013-06-23 02:33:00,78.0,68.6,29.68,North,360,6.0,20.0,73,0.00,,,0.00,0,HR-IXPWINDi_r2_v1.2.,2013-06-23 07:33:00,
2013-06-23 02:39:00,78.1,68.7,29.68,North,360,9.0,20.0,73,0.00,,,0.00,0,HR-IXPWINDi_r2_v1.2.,2013-06-23 07:39:00,
2013-06-23 02:44:00,78.1,68.7,29.68,North,360,4.0,12.0,73,0.00,,,0.00,0,HR-IXPWINDi_r2_v1.2.,2013-06-23 07:44:00,
2013-06-23 02:49:00,78.1,68.7,29.67,North,360,7.0,16.0,73,0.00,,,0.00,0,HR-IXPWINDi_r2_v1.2.,2013-06-23 07:49:00,
2013-06-23 02:54:00,78.0,68.6,29.68,North,360,5.0,21.0,73,0.00,,,0.00,0,HR-IXPWINDi_r2_v1.2.,2013-06-23 07:54:00,
2013-06-23 03:00:00,78.0,68.6,29.67,North,360,5.0,21.0,73,0.00,,,0.00,0,HR-IXPWINDi_r2_v1.2.,2013-06-23 08:00:00,
2013-06-23 03:05:00,78.0,68.6,29.67,North,360,6.0,15.0,73,0.00,,,0.00,0,HR-IXPWINDi_r2_v1.2.,2013-06-23 08:05:00,
2013-06-23 03:10:00,77.9,68.5,29.68,North,360,4.0,13.0,73,0.00,,,0.00,0,HR-IXPWINDi_r2_v1.2.,2013-06-23 08:10:00,
2013-06-23 03:15:00,77.9,68.5,29.69,North,360,4.0,14.0,73,0.00,,,0.00,0,HR-IXPWINDi_r2_v1.2.,2013-06-23 08:15:00,
2013-06-23 03:20:00,77.8,68.4,29.69,North,360,3.0,17.0,73,0.00,,,0.00,0,HR-IXPWINDi_r2_v1.2.,2013-06-23 08:20:00,
2013-06-23 03:26:00,77.8,68.4,29.68,North,360,2.0,17.0,73,0.00,,,0.00,0,HR-IXPWINDi_r2_v1.2.,2013-06-23 08:26:00,
2013-06-23 03:31:00,77.9,68.1,29.68,North,360,7.0,14.0,72,0.00,,,0.00,0,HR-IXPWINDi_r2_v1.2.,2013-06-23 08:31:00,
2013-06-23 03:36:00,77.8,68.0,29.68,North,360,3.0,14.0,72,0.00,,,0.00,0,HR-IXPWINDi_r2_v1.2.,2013-06-23 08:36:00,
2013-06-23 03:41:00,77.8,68.0,29.69,North,360,9.0,14.0,72,0.00,,,0.00,0,HR-IXPWINDi_r2_v1.2.,2013-06-23 08:41:00,
2013-06-23 03:46:00,77.8,68.0,29.70,North,360,11.0,15.0,72,0.00,,,0.00,0,HR-IXPWINDi_r2_v1.2.,2013-06-23 08:46:00,
2013-06-23 03:52:00,77.8,68.0,29.71,North,360,3.0,15.0,72,0.00,,,0.00,0,HR-IXPWINDi_r2_v1.2.,2013-06-23 08:52:00,
2013-06-23 03:57:00,77.9,68.1,29.74,North,360,14.0,18.0,72,0.00,,,0.00,0,HR-IXPWINDi_r2_v1.2.,2013-06-23 08:57:00,
2013-06-23 04:02:00,77.9,68.1,29.75,North,360,10.0,18.0,72,0.00,,,0.00,0,HR-IXPWINDi_r2_v1.2.,2013-06-23 09:02:00,
2013-06-23 04:07:00,77.9,67.7,29.74,North,360,8.0,17.0,71,0.00,,,0.00,0,HR-IXPWINDi_r2_v1.2.,2013-06-23 09:07:00,
2013-06-23 04:12:00,77.9,67.7,29.75,North,360,2.0,14.0,71,0.00,,,0.00,0,HR-IXPWINDi_r2_v1.2.,2013-06-23 09:12:00,
2013-06-23 04:17:00,77.9,67.7,29.74,North,360,2.0,12.0,71,0.00,,,0.00,0,HR-IXPWINDi_r2_v1.2.,2013-06-23 09:17:00,
2013-06-23 04:23:00,77.9,67.7,29.74,North,360,2.0,7.0,71,0.00,,,0.00,0,HR-IXPWINDi_r2_v1.2.,2013-06-23 09:23:00,
2013-06-23 04:28:00,77.9,67.7,29.73,North,360,6.0,9.0,71,0.00,,,0.00,0,HR-IXPWINDi_r2_v1.2.,2013-06-23 09:28:00,
2013-06-23 04:33:00,77.2,67.4,29.74,North,360,9.0,15.0,72,0.00,,,0.00,0,HR-IXPWINDi_r2_v1.2.,2013-06-23 09:33:00,
2013-06-23 04:38:00,74.0,65.9,29.76,North,360,3.0,15.0,76,0.00,,,0.00,0,HR-IXPWINDi_r2_v1.2.,2013-06-23 09:38:00,
2013-06-23 04:43:00,71.2,64.7,29.76,North,360,4.0,19.0,80,0.00,,,0.01,0,HR-IXPWINDi_r2_v1.2.,2013-06-23 09:43:00,
2013-06-23 04:48:00,69.4,63.9,29.78,North,360,5.0,19.0,83,0.08,,,0.01,0,HR-IXPWINDi_r2_v1.2.,2013-06-23 09:48:00,
2013-06-23 04:54:00,67.8,63.7,29.79,North,360,11.0,16.0,87,1.32,,,0.12,0,HR-IXPWINDi_r2_v1.2.,2013-06-23 09:54:00,
2013-06-23 04:59:00,67.0,63.6,29.79,North,360,10.0,14.0,89,0.47,,,0.18,0,HR-IXPWINDi_r2_v1.2.,2013-06-23 09:59:00,
2013-06-23 05:04:00,66.5,63.4,29.82,North,360,3.0,16.0,90,0.83,,,0.28,0,HR-IXPWINDi_r2_v1.2.,2013-06-23 10:04:00,
2013-06-23 05:10:00,66.2,63.4,29.83,North,360,7.0,16.0,91,1.34,,,0.37,0,HR-IXPWINDi_r2_v1.2.,2013-06-23 10:10:00,
2013-06-23 05:15:00,66.1,63.6,29.81,North,360,6.0,14.0,92,0.22,,,0.40,0,HR-IXPWINDi_r2_v1.2.,2013-06-23 10:15:00,
2013-06-23 05:20:00,66.0,63.5,29.81,North,360,3.0,13.0,92,0.10,,,0.40,0,HR-IXPWINDi_r2_v1.2.,2013-06-23 10:20:00,
2013-06-23 05:25:00,66.0,63.5,29.77,North,360,11.0,17.0,92,0.49,,,0.42,0,HR-IXPWINDi_r2_v1.2.,2013-06-23 10:25:00,
2013-06-23 05:30:00,65.9,63.4,29.78,North,360,6.0,18.0,92,0.51,,,0.46,0,HR-IXPWINDi_r2_v1.2.,2013-06-23 10:30:00,
2013-06-23 05:35:00,65.6,62.8,29.78,North,360,3.0,18.0,91,0.75,,,0.52,0,HR-IXPWINDi_r2_v1.2.,2013-06-23 10:35:00,
2013-06-23 05:40:00,65.9,62.8,29.79,North,350,10.0,17.0,90,0.17,,,0.54,0,HR-IXPWINDi_r2_v1.2.,2013-06-23 10:40:00,
2013-06-23 05:45:00,66.2,62.8,29.79,North,360,6.0,16.0,89,0.10,,,0.54,0,HR-IXPWINDi_r2_v1.2.,2013-06-23 10:45:00,
2013-06-23 05:51:00,66.4,62.7,29.80,North,360,5.0,14.0,88,0.05,,,0.54,0,HR-IXPWINDi_r2_v1.2.,2013-06-23 10:51:00,
2013-06-23 05:56:00,66.6,62.9,29.81,North,355,2.0,11.0,88,0.04,,,0.54,0,HR-IXPWINDi_r2_v1.2.,2013-06-23 10:56:00,
2013-06-23 06:01:00,66.8,63.1,29.83,North,360,2.0,8.0,88,0.00,,,0.54,0,HR-IXPWINDi_r2_v1.2.,2013-06-23 11:01:00,
2013-06-23 06:06:00,66.9,63.2,29.85,North,360,3.0,8.0,88,0.00,,,0.54,0,HR-IXPWINDi_r2_v1.2.,2013-06-23 11:06:00,
2013-06-23 06:11:00,66.8,63.1,29.86,North,360,0.0,8.0,88,0.00,,,0.54,0,HR-IXPWINDi_r2_v1.2.,2013-06-23 11:11:00,
2013-06-23 06:16:00,66.8,63.1,29.87,North,360,0.0,7.0,88,0.00,,,0.54,0,HR-IXPWINDi_r2_v1.2.,2013-06-23 11:16:00,
2013-06-23 06:22:00,66.9,63.5,29.87,North,360,2.0,7.0,89,0.28,,,0.57,0,HR-IXPWINDi_r2_v1.2.,2013-06-23 11:22:00,
2013-06-23 06:27:00,66.9,63.5,29.86,North,360,1.0,5.0,89,0.10,,,0.58,0,HR-IXPWINDi_r2_v1.2.,2013-06-23 11:27:00,
2013-06-23 06:32:00,66.8,63.7,29.86,North,360,2.0,5.0,90,0.10,,,0.59,0,HR-IXPWINDi_r2_v1.2.,2013-06-23 11:32:00,
2013-06-23 06:38:00,66.6,63.5,29.85,North,360,0.0,5.0,90,0.31,,,0.62,0,HR-IXPWINDi_r2_v1.2.,2013-06-23 11:38:00,
2013-06-23 06:44:00,66.5,63.4,29.84,North,360,4.0,6.0,90,0.19,,,0.64,0,HR-IXPWINDi_r2_v1.2.,2013-06-23 11:44:00,
2013-06-23 06:49:00,66.4,63.3,29.83,North,360,2.0,7.0,90,0.10,,,0.64,0,HR-IXPWINDi_r2_v1.2.,2013-06-23 11:49:00,
2013-06-23 06:54:00,66.4,63.3,29.82,North,360,5.0,7.0,90,0.05,,,0.64,0,HR-IXPWINDi_r2_v1.2.,2013-06-23 11:54:00,
2013-06-23 06:59:00,66.1,63.0,29.81,North,360,1.0,8.0,90,0.04,,,0.65,0,HR-IXPWINDi_r2_v1.2.,2013-06-23 11:59:00,
2013-06-23 07:04:00,65.9,62.8,29.80,North,360,7.0,8.0,90,0.11,,,0.66,0,HR-IXPWINDi_r2_v1.2.,2013-06-23 12:04:00,
2013-06-23 07:09:00,65.9,62.8,29.79,North,360,6.0,9.0,90,0.12,,,0.67,0,HR-IXPWINDi_r2_v1.2.,2013-06-23 12:09:00,
2013-06-23 07:14:00,65.9,62.5,29.79,North,360,5.0,9.0,89,0.09,,,0.68,0,HR-IXPWINDi_r2_v1.2.,2013-06-23 12:14:00,
2013-06-23 07:19:00,-999.0,-99.9,29.77,North,360,8.0,11.0,89,0.11,,,0.69,0,HR-IXPWINDi_r2_v1.2.,2013-06-23 12:19:00,
2013-06-23 07:24:00,65.6,94.1,29.76,North,360,9.0,11.0,-999,0.10,,,0.69,0,HR-IXPWINDi_r2_v1.2.,2013-06-23 12:24:00,
2013-06-23 07:29:00,65.6,62.2,29.73,North,360,11.0,13.0,89,0.09,,,0.70,0,HR-IXPWINDi_r2_v1.2.,2013-06-23 12:29:00,
2013-06-23 07:35:00,65.4,62.3,29.69,North,360,11.0,15.0,90,0.06,,,0.70,0,HR-IXPWINDi_r2_v1.2.,2013-06-23 12:35:00,
2013-06-23 07:40:00,65.3,62.2,29.70,North,360,14.0,15.0,90,0.04,,,0.70,0,HR-IXPWINDi_r2_v1.2.,2013-06-23 12:40:00,
2013-06-23 07:45:00,65.4,62.3,29.68,North,360,12.0,17.0,90,0.00,,,0.70,0,HR-IXPWINDi_r2_v1.2.,2013-06-23 12:45:00,
2013-06-23 07:50:00,65.5,62.1,29.67,North,360,14.0,18.0,89,0.00,,,0.70,0,HR-IXPWINDi_r2_v1.2.,2013-06-23 12:50:00,
2013-06-23 07:55:00,65.7,62.3,29.69,North,360,10.0,18.0,89,0.00,,,0.70,5,HR-IXPWINDi_r2_v1.2.,2013-06-23 12:55:00,
2013-06-23 08:00:00,65.7,62.3,29.70,North,360,8.0,18.0,89,0.00,,,0.70,7,HR-IXPWINDi_r2_v1.2.,2013-06-23 13:00:00,
2013-06-23 08:05:00,65.8,62.4,29.71,North,360,7.0,18.0,89,0.00,,,0.70,9,HR-IXPWINDi_r2_v1.2.,2013-06-23 13:05:00,
2013-06-23 08:11:00,65.9,62.5,29.72,North,360,5.0,14.0,89,0.00,,,0.70,11,HR-IXPWINDi_r2_v1.2.,2013-06-23 13:11:00,
2013-06-23 08:16:00,65.9,62.5,29.74,North,360,4.0,14.0,89,0.00,,,0.70,12,HR-IXPWINDi_r2_v1.2.,2013-06-23 13:16:00,
2013-06-23 08:21:00,65.8,62.4,29.73,North,360,3.0,11.0,89,0.00,,,0.70,14,HR-IXPWINDi_r2_v1.2.,2013-06-23 13:21:00,
2013-06-23 08:26:00,65.8,62.7,29.74,North,360,1.0,9.0,90,0.00,,,0.70,19,HR-IXPWINDi_r2_v1.2.,2013-06-23 13:26:00,
2013-06-23 08:31:00,65.8,62.7,29.72,North,360,5.0,9.0,90,0.00,,,0.70,25,HR-IXPWINDi_r2_v1.2.,2013-06-23 13:31:00,
2013-06-23 08:36:00,65.8,62.7,29.71,North,360,4.0,10.0,90,0.00,,,0.70,33,HR-IXPWINDi_r2_v1.2.,2013-06-23 13:36:00,
2013-06-23 08:41:00,65.8,62.7,29.73,North,360,8.0,15.0,90,0.00,,,0.70,40,HR-IXPWINDi_r2_v1.2.,2013-06-23 13:41:00,
2013-06-23 08:47:00,65.9,62.8,29.74,North,360,3.0,16.0,90,0.00,,,0.70,42,HR-IXPWINDi_r2_v1.2.,2013-06-23 13:47:00,
2013-06-23 08:52:00,66.0,62.6,29.74,North,360,6.0,22.0,89,0.00,,,0.70,40,HR-IXPWINDi_r2_v1.2.,2013-06-23 13:52:00,
2013-06-23 08:57:00,66.0,62.6,29.75,North,360,14.0,22.0,89,0.00,,,0.70,37,HR-IXPWINDi_r2_v1.2.,2013-06-23 13:57:00,
2013-06-23 09:02:00,66.0,62.3,29.75,North,360,3.0,17.0,88,0.00,,,0.70,30,HR-IXPWINDi_r2_v1.2.,2013-06-23 14:02:00,
2013-06-23 09:07:00,66.1,62.4,29.75,North,360,6.0,17.0,88,0.00,,,0.70,26,HR-IXPWINDi_r2_v1.2.,2013-06-23 14:07:00,
2013-06-23 09:13:00,66.0,62.3,29.75,North,360,4.0,12.0,88,0.00,,,0.70,26,HR-IXPWINDi_r2_v1.2.,2013-06-23 14:13:00,
2013-06-23 09:18:00,66.0,62.3,29.75,North,360,2.0,12.0,88,0.00,,,0.70,30,HR-IXPWINDi_r2_v1.2.,2013-06-23 14:18:00,
2013-06-23 09:23:00,66.0,62.3,29.76,North,360,1.0,9.0,88,0.00,,,0.70,35,HR-IXPWINDi_r2_v1.2.,2013-06-23 14:23:00,
2013-06-23 09:28:00,66.1,62.4,29.77,North,360,1.0,5.0,88,0.00,,,0.70,44,HR-IXPWINDi_r2_v1.2.,2013-06-23 14:28:00,
2013-06-23 09:34:00,66.1,62.4,29.78,North,360,1.0,5.0,88,0.00,,,0.70,60,HR-IXPWINDi_r2_v1.2.,2013-06-23 14:34:00,
2013-06-23 09:39:00,66.2,62.5,29.78,North,360,0.0,4.0,88,0.00,,,0.70,70,HR-IXPWINDi_r2_v1.2.,2013-06-23 14:39:00,
2013-06-23 09:44:00,66.3,62.9,29.78,North,360,0.0,4.0,89,0.00,,,0.70,72,HR-IXPWINDi_r2_v1.2.,2013-06-23 14:44:00,
2013-06-23 09:49:00,66.4,63.0,29.79,North,360,4.0,6.0,89,0.00,,,0.70,74,HR-IXPWINDi_r2_v1.2.,2013-06-23 14:49:00,
2013-06-23 09:55:00,66.3,62.9,29.79,North,360,2.0,7.0,89,0.00,,,0.70,81,HR-IXPWINDi_r2_v1.2.,2013-06-23 14:55:00,
2013-06-23 10:00:00,66.3,62.6,29.79,North,360,4.0,8.0,88,0.00,,,0.70,83,HR-IXPWINDi_r2_v1.2.,2013-06-23 15:00:00,
2013-06-23 10:05:00,66.4,62.7,29.79,North,360,0.0,8.0,88,0.00,,,0.70,88,HR-IXPWINDi_r2_v1.2.,2013-06-23 15:05:00,
2013-06-23 10:11:00,66.6,63.2,29.79,North,360,0.0,6.0,89,0.00,,,0.70,104,HR-IXPWINDi_r2_v1.2.,2013-06-23 15:11:00,
2013-06-23 10:16:00,66.8,63.4,29.80,North,360,1.0,6.0,89,0.00,,,0.70,113,HR-IXPWINDi_r2_v1.2.,2013-06-23 15:16:00,
2013-06-23 10:21:00,66.7,63.0,29.80,North,360,1.0,8.0,88,0.00,,,0.70,121,HR-IXPWINDi_r2_v1.2.,2013-06-23 15:21:00,
2013-06-23 10:26:00,66.8,63.1,29.80,North,360,0.0,8.0,88,0.00,,,0.70,146,HR-IXPWINDi_r2_v1.2.,2013-06-23 15:26:00,
2013-06-23 10:31:00,67.1,63.0,29.80,North,360,0.0,5.0,87,0.00,,,0.70,188,HR-IXPWINDi_r2_v1.2.,2013-06-23 15:31:00,
2013-06-23 10:37:00,67.8,63.4,29.81,North,360,1.0,4.0,86,0.00,,,0.70,230,HR-IXPWINDi_r2_v1.2.,2013-06-23 15:37:00,
2013-06-23 10:42:00,68.2,63.5,29.80,North,360,2.0,7.0,85,0.00,,,0.70,276,HR-IXPWINDi_r2_v1.2.,2013-06-23 15:42:00,
2013-06-23 10:47:00,68.8,63.7,29.80,North,360,1.0,7.0,84,0.00,,,0.70,318,HR-IXPWINDi_r2_v1.2.,2013-06-23 15:47:00,
2013-06-23 10:52:00,69.4,63.6,29.80,North,360,7.0,8.0,82,0.00,,,0.70,380,HR-IXPWINDi_r2_v1.2.,2013-06-23 15:52:00,
2013-06-23 10:58:00,70.0,63.5,29.80,North,360,7.0,11.0,80,0.00,,,0.70,455,HR-IXPWINDi_r2_v1.2.,2013-06-23 15:58:00,
2013-06-23 11:03:00,71.0,64.1,29.79,North,360,3.0,11.0,79,0.00,,,0.70,504,HR-IXPWINDi_r2_v1.2.,2013-06-23 16:03:00,
2013-06-23 11:08:00,71.7,64.0,29.79,North,360,6.0,8.0,77,0.00,,,0.70,527,HR-IXPWINDi_r2_v1.2.,2013-06-23 16:08:00,
2013-06-23 11:13:00,72.2,63.8,29.80,North,360,7.0,10.0,75,0.00,,,0.70,496,HR-IXPWINDi_r2_v1.2.,2013-06-23 16:13:00,
2013-06-23 11:18:00,72.8,64.0,29.80,North,360,8.0,10.0,74,0.00,,,0.70,522,HR-IXPWINDi_r2_v1.2.,2013-06-23 16:18:00,
2013-06-23 11:23:00,73.2,64.4,29.80,North,360,3.0,9.0,74,0.00,,,0.70,526,HR-IXPWINDi_r2_v1.2.,2013-06-23 16:23:00,
2013-06-23 11:29:00,74.3,64.6,29.80,North,360,3.0,10.0,72,0.00,,,0.70,508,HR-IXPWINDi_r2_v1.2.,2013-06-23 16:29:00,
2013-06-23 11:34:00,73.8,64.1,29.81,North,360,4.0,10.0,72,0.00,,,0.70,512,HR-IXPWINDi_r2_v1.2.,2013-06-23 16:34:00,
2013-06-23 11:39:00,73.8,64.1,29.80,North,360,6.0,10.0,72,0.00,,,0.70,547,HR-IXPWINDi_r2_v1.2.,2013-06-23 16:39:00,
2013-06-23 11:45:00,75.3,65.2,29.81,North,360,6.0,9.0,71,0.00,,,0.70,561,HR-IXPWINDi_r2_v1.2.,2013-06-23 16:45:00,
2013-06-23 11:50:00,75.2,64.7,29.81,North,360,5.0,11.0,70,0.00,,,0.70,570,HR-IXPWINDi_r2_v1.2.,2013-06-23 16:50:00,
2013-06-23 11:55:00,75.6,65.1,29.81,North,360,3.0,11.0,70,0.00,,,0.70,531,HR-IXPWINDi_r2_v1.2.,2013-06-23 16:55:00,
2013-06-23 11:57:00,75.7,65.6,29.81,North,360,7.0,11.0,71,0.00,,,0.70,545,HR-IXPWINDi_r2_v1.2.,2013-06-23 16:57:00,
2013-06-23 12:02:00,75.8,64.8,29.81,North,360,5.0,11.0,69,0.00,,,0.70,512,HR-IXPWINDi_r2_v1.2.,2013-06-23 17:02:00,
2013-06-23 12:07:00,75.5,65.0,29.81,North,360,7.0,11.0,70,0.00,,,0.70,552,HR-IXPWINDi_r2_v1.2.,2013-06-23 17:07:00,
2013-06-23 12:13:00,75.8,65.3,29.81,North,360,2.0,11.0,70,0.00,,,0.70,566,HR-IXPWINDi_r2_v1.2.,2013-06-23 17:13:00,
2013-06-23 12:18:00,76.5,65.1,29.81,North,360,5.0,11.0,68,0.00,,,0.70,485,HR-IXPWINDi_r2_v1.2.,2013-06-23 17:18:00,
2013-06-23 12:23:00,76.1,65.1,29.82,North,360,10.0,12.0,69,0.00,,,0.70,422,HR-IXPWINDi_r2_v1.2.,2013-06-23 17:23:00,
2013-06-23 12:28:00,75.5,64.6,29.82,North,360,9.0,12.0,69,0.00,,,0.70,404,HR-IXPWINDi_r2_v1.2.,2013-06-23 17:28:00,
2013-06-23 12:33:00,76.2,65.2,29.81,North,360,4.0,11.0,69,0.00,,,0.70,515,HR-IXPWINDi_r2_v1.2.,2013-06-23 17:33:00,
2013-06-23 12:39:00,76.6,65.6,29.81,North,360,1.0,9.0,69,0.00,,,0.70,638,HR-IXPWINDi_r2_v1.2.,2013-06-23 17:39:00,
2013-06-23 12:44:00,77.3,65.4,29.81,North,360,2.0,7.0,67,0.00,,,0.70,540,HR-IXPWINDi_r2_v1.2.,2013-06-23 17:44:00,
2013-06-23 12:49:00,76.2,65.6,29.81,North,360,0.0,7.0,70,0.00,,,0.70,622,HR-IXPWINDi_r2_v1.2.,2013-06-23 17:49:00,
2013-06-23 12:54:00,77.4,65.5,29.81,North,360,0.0,7.0,67,0.00,,,0.70,504,HR-IXPWINDi_r2_v1.2.,2013-06-23 17:54:00,
2013-06-23 12:59:00,77.9,65.6,29.81,North,360,2.0,11.0,66,0.00,,,0.70,373,HR-IXPWINDi_r2_v1.2.,2013-06-23 17:59:00,
2013-06-23 13:04:00,77.1,65.7,29.81,North,360,6.0,11.0,68,0.00,,,0.70,369,HR-IXPWINDi_r2_v1.2.,2013-06-23 18:04:00,
2013-06-23 13:09:00,77.0,65.6,29.81,North,360,1.0,9.0,68,0.00,,,0.70,436,HR-IXPWINDi_r2_v1.2.,2013-06-23 18:09:00,
2013-06-23 13:15:00,76.9,65.5,29.81,North,360,1.0,8.0,68,0.00,,,0.70,397,HR-IXPWINDi_r2_v1.2.,2013-06-23 18:15:00,
2013-06-23 13:20:00,77.5,66.1,29.81,North,360,4.0,6.0,68,0.00,,,0.70,297,HR-IXPWINDi_r2_v1.2.,2013-06-23 18:20:00,
2013-06-23 13:25:00,77.9,66.0,29.81,North,360,3.0,7.0,67,0.00,,,0.70,265,HR-IXPWINDi_r2_v1.2.,2013-06-23 18:25:00,
2013-06-23 13:30:00,77.6,66.1,29.81,North,360,4.0,7.0,68,0.00,,,0.70,301,HR-IXPWINDi_r2_v1.2.,2013-06-23 18:30:00,
2013-06-23 13:36:00,77.6,66.1,29.81,North,360,6.0,8.0,68,0.00,,,0.70,408,HR-IXPWINDi_r2_v1.2.,2013-06-23 18:36:00,
2013-06-23 13:41:00,77.5,66.1,29.81,North,360,2.0,8.0,68,0.00,,,0.70,338,HR-IXPWINDi_r2_v1.2.,2013-06-23 18:41:00,
2013-06-23 13:46:00,77.8,66.3,29.81,North,360,1.0,7.0,68,0.00,,,0.70,455,HR-IXPWINDi_r2_v1.2.,2013-06-23 18:46:00,
2013-06-23 13:51:00,77.7,65.8,29.81,North,360,2.0,7.0,67,0.00,,,0.70,346,HR-IXPWINDi_r2_v1.2.,2013-06-23 18:51:00,
2013-06-23 13:56:00,77.8,66.3,29.81,North,360,2.0,8.0,68,0.00,,,0.70,330,HR-IXPWINDi_r2_v1.2.,2013-06-23 18:56:00,
2013-06-23 14:01:00,77.5,66.9,29.81,North,360,4.0,8.0,70,0.00,,,0.70,397,HR-IXPWINDi_r2_v1.2.,2013-06-23 19:01:00,
2013-06-23 14:07:00,78.5,66.6,29.81,North,360,2.0,6.0,67,0.00,,,0.70,264,HR-IXPWINDi_r2_v1.2.,2013-06-23 19:07:00,
2013-06-23 14:12:00,77.6,66.1,29.81,North,360,5.0,5.0,68,0.00,,,0.70,304,HR-IXPWINDi_r2_v1.2.,2013-06-23 19:12:00,
2013-06-23 14:17:00,77.1,66.1,29.81,North,360,0.0,5.0,69,0.00,,,0.70,239,HR-IXPWINDi_r2_v1.2.,2013-06-23 19:17:00,
2013-06-23 14:23:00,77.3,66.3,29.81,North,360,2.0,4.0,69,0.00,,,0.70,369,HR-IXPWINDi_r2_v1.2.,2013-06-23 19:23:00,
2013-06-23 14:28:00,78.4,66.5,29.81,North,360,2.0,5.0,67,0.00,,,0.70,457,HR-IXPWINDi_r2_v1.2.,2013-06-23 19:28:00,
2013-06-23 14:33:00,78.8,66.4,29.81,North,360,1.0,5.0,66,0.00,,,0.70,483,HR-IXPWINDi_r2_v1.2.,2013-06-23 19:33:00,
2013-06-23 14:38:00,78.2,66.3,29.81,North,360,1.0,5.0,67,0.00,,,0.70,267,HR-IXPWINDi_r2_v1.2.,2013-06-23 19:38:00,
2013-06-23 14:43:00,77.6,66.6,29.81,North,360,0.0,5.0,69,0.00,,,0.70,343,HR-IXPWINDi_r2_v1.2.,2013-06-23 19:43:00,
2013-06-23 14:48:00,76.5,66.3,29.81,North,360,0.0,5.0,71,0.00,,,0.70,301,HR-IXPWINDi_r2_v1.2.,2013-06-23 19:48:00,
2013-06-23 14:53:00,77.3,67.1,29.81,North,360,0.0,2.0,71,0.00,,,0.70,294,HR-IXPWINDi_r2_v1.2.,2013-06-23 19:53:00,
2013-06-23 14:59:00,77.5,66.9,29.81,North,360,1.0,2.0,70,0.00,,,0.70,366,HR-IXPWINDi_r2_v1.2.,2013-06-23 19:59:00,
2013-06-23 15:04:00,78.7,66.8,29.81,North,360,0.0,2.0,67,0.00,,,0.70,383,HR-IXPWINDi_r2_v1.2.,2013-06-23 20:04:00,
2013-06-23 15:09:00,78.4,67.3,29.81,North,360,0.0,2.0,69,0.00,,,0.70,315,HR-IXPWINDi_r2_v1.2.,2013-06-23 20:09:00,
2013-06-23 15:14:00,79.7,67.3,29.81,North,360,0.0,2.0,66,0.00,,,0.70,371,HR-IXPWINDi_r2_v1.2.,2013-06-23 20:14:00,
2013-06-23 15:19:00,80.1,67.2,29.81,North,360,0.0,3.0,65,0.00,,,0.70,457,HR-IXPWINDi_r2_v1.2.,2013-06-23 20:19:00,
2013-06-23 15:24:00,80.5,67.6,29.81,North,360,1.0,4.0,65,0.00,,,0.70,399,HR-IXPWINDi_r2_v1.2.,2013-06-23 20:24:00,
2013-06-23 15:30:00,80.2,67.3,29.81,North,360,2.0,4.0,65,0.00,,,0.70,316,HR-IXPWINDi_r2_v1.2.,2013-06-23 20:30:00,
2013-06-23 15:35:00,79.5,67.5,29.81,North,360,0.0,4.0,67,0.00,,,0.70,369,HR-IXPWINDi_r2_v1.2.,2013-06-23 20:35:00,
2013-06-23 15:40:00,79.7,67.3,29.80,North,360,1.0,4.0,66,0.00,,,0.70,341,HR-IXPWINDi_r2_v1.2.,2013-06-23 20:40:00,
2013-06-23 15:45:00,79.9,67.9,29.80,North,360,0.0,3.0,67,0.00,,,0.70,420,HR-IXPWINDi_r2_v1.2.,2013-06-23 20:45:00,
2013-06-23 15:50:00,79.8,67.8,29.80,North,360,0.0,4.0,67,0.00,,,0.70,355,HR-IXPWINDi_r2_v1.2.,2013-06-23 20:50:00,
2013-06-23 15:55:00,80.2,68.2,29.80,North,360,0.0,5.0,67,0.00,,,0.70,336,HR-IXPWINDi_r2_v1.2.,2013-06-23 20:55:00,
2013-06-23 16:00:00,80.2,68.2,29.80,North,360,0.0,5.0,67,0.00,,,0.70,339,HR-IXPWINDi_r2_v1.2.,2013-06-23 21:00:00,
2013-06-23 16:06:00,79.4,67.9,29.80,North,360,1.0,3.0,68,0.00,,,0.70,325,HR-IXPWINDi_r2_v1.2.,2013-06-23 21:06:00,
2013-06-23 16:11:00,79.8,68.2,29.80,North,360,0.0,4.0,68,0.00,,,0.70,350,HR-IXPWINDi_r2_v1.2.,2013-06-23 21:11:00,
2013-06-23 16:16:00,81.5,68.5,29.80,North,360,2.0,4.0,65,0.00,,,0.70,471,HR-IXPWINDi_r2_v1.2.,2013-06-23 21:16:00,
2013-06-23 16:21:00,81.8,68.8,29.79,North,360,0.0,3.0,65,0.00,,,0.70,441,HR-IXPWINDi_r2_v1.2.,2013-06-23 21:21:00,
2013-06-23 16:26:00,83.0,69.1,29.79,North,360,0.0,3.0,63,0.00,,,0.70,427,HR-IXPWINDi_r2_v1.2.,2013-06-23 21:26:00,
2013-06-23 16:32:00,82.5,69.5,29.79,North,360,0.0,3.0,65,0.00,,,0.70,791,HR-IXPWINDi_r2_v1.2.,2013-06-23 21:32:00,
2013-06-23 16:37:00,81.6,68.6,29.79,North,360,1.0,2.0,65,0.00,,,0.70,696,HR-IXPWINDi_r2_v1.2.,2013-06-23 21:37:00,
2013-06-23 16:42:00,82.7,68.8,29.79,North,360,2.0,4.0,63,0.00,,,0.70,443,HR-IXPWINDi_r2_v1.2.,2013-06-23 21:42:00,
2013-06-23 16:47:00,83.0,68.6,29.78,North,360,0.0,4.0,62,0.00,,,0.70,631,HR-IXPWINDi_r2_v1.2.,2013-06-23 21:47:00,
2013-06-23 16:52:00,82.9,68.5,29.78,North,360,0.0,4.0,62,0.00,,,0.70,589,HR-IXPWINDi_r2_v1.2.,2013-06-23 21:52:00,
2013-06-23 16:57:00,82.9,68.5,29.78,North,360,1.0,3.0,62,0.00,,,0.70,594,HR-IXPWINDi_r2_v1.2.,2013-06-23 21:57:00,
2013-06-23 17:02:00,82.9,69.0,29.78,North,360,0.0,3.0,63,0.00,,,0.70,541,HR-IXPWINDi_r2_v1.2.,2013-06-23 22:02:00,
2013-06-23 17:08:00,81.5,68.5,29.77,North,360,0.0,3.0,65,0.00,,,0.70,559,HR-IXPWINDi_r2_v1.2.,2013-06-23 22:08:00,
2013-06-23 17:13:00,81.1,68.6,29.78,North,360,1.0,4.0,66,0.00,,,0.70,536,HR-IXPWINDi_r2_v1.2.,2013-06-23 22:13:00,
2013-06-23 17:18:00,81.7,68.7,29.79,North,360,0.0,4.0,65,0.00,,,0.70,512,HR-IXPWINDi_r2_v1.2.,2013-06-23 22:18:00,
2013-06-23 17:23:00,82.9,69.0,29.79,North,360,4.0,4.0,63,0.00,,,0.70,469,HR-IXPWINDi_r2_v1.2.,2013-06-23 22:23:00,
2013-06-23 17:28:00,82.4,69.0,29.79,North,360,1.0,4.0,64,0.00,,,0.70,555,HR-IXPWINDi_r2_v1.2.,2013-06-23 22:28:00,
2013-06-23 17:34:00,82.6,69.1,29.79,North,360,0.0,4.0,64,0.00,,,0.70,468,HR-IXPWINDi_r2_v1.2.,2013-06-23 22:34:00,
2013-06-23 17:39:00,83.0,69.1,29.79,North,360,0.0,4.0,63,0.00,,,0.70,425,HR-IXPWINDi_r2_v1.2.,2013-06-23 22:39:00,
2013-06-23 17:44:00,82.4,69.0,29.79,North,360,3.0,3.0,64,0.00,,,0.70,431,HR-IXPWINDi_r2_v1.2.,2013-06-23 22:44:00,
2013-06-23 17:49:00,80.7,68.7,29.78,North,360,0.0,3.0,67,0.00,,,0.70,439,HR-IXPWINDi_r2_v1.2.,2013-06-23 22:49:00,
2013-06-23 17:54:00,80.5,68.5,29.79,North,360,0.0,4.0,67,0.00,,,0.70,274,HR-IXPWINDi_r2_v1.2.,2013-06-23 22:54:00,
2013-06-23 17:59:00,80.2,69.1,29.79,North,360,3.0,5.0,69,0.00,,,0.70,287,HR-IXPWINDi_r2_v1.2.,2013-06-23 22:59:00,
2013-06-23 18:05:00,80.5,68.5,29.79,North,360,2.0,5.0,67,0.00,,,0.70,250,HR-IXPWINDi_r2_v1.2.,2013-06-23 23:05:00,
2013-06-23 18:10:00,80.1,68.5,29.79,North,360,0.0,5.0,68,0.00,,,0.70,216,HR-IXPWINDi_r2_v1.2.,2013-06-23 23:10:00,
2013-06-23 18:15:00,80.3,68.7,29.78,North,360,0.0,3.0,68,0.00,,,0.70,338,HR-IXPWINDi_r2_v1.2.,2013-06-23 23:15:00,
2013-06-23 18:20:00,80.3,68.3,29.78,North,360,1.0,3.0,67,0.00,,,0.70,346,HR-IXPWINDi_r2_v1.2.,2013-06-23 23:20:00,
2013-06-23 18:26:00,80.1,68.1,29.78,North,360,1.0,4.0,67,0.00,,,0.70,297,HR-IXPWINDi_r2_v1.2.,2013-06-23 23:26:00,
2013-06-23 18:31:00,80.3,68.7,29.78,North,360,2.0,4.0,68,0.00,,,0.70,287,HR-IXPWINDi_r2_v1.2.,2013-06-23 23:31:00,
2013-06-23 18:36:00,80.5,68.5,29.78,North,360,1.0,3.0,67,0.00,,,0.70,288,HR-IXPWINDi_r2_v1.2.,2013-06-23 23:36:00,
2013-06-23 18:41:00,80.2,68.2,29.78,North,360,1.0,3.0,67,0.00,,,0.70,276,HR-IXPWINDi_r2_v1.2.,2013-06-23 23:41:00,
2013-06-23 18:47:00,80.1,68.5,29.78,North,360,0.0,3.0,68,0.00,,,0.70,258,HR-IXPWINDi_r2_v1.2.,2013-06-23 23:47:00,
2013-06-23 18:52:00,80.2,68.6,29.78,North,360,1.0,4.0,68,0.00,,,0.70,225,HR-IXPWINDi_r2_v1.2.,2013-06-23 23:52:00,
2013-06-23 18:57:00,80.4,68.4,29.78,North,360,3.0,4.0,67,0.00,,,0.70,211,HR-IXPWINDi_r2_v1.2.,2013-06-23 23:57:00,
2013-06-23 19:02:00,80.1,68.5,29.78,North,360,2.0,3.0,68,0.00,,,0.70,190,HR-IXPWINDi_r2_v1.2.,2013-06-24 00:02:00,
2013-06-23 19:07:00,79.6,68.1,29.78,North,360,0.0,3.0,68,0.00,,,0.70,162,HR-IXPWINDi_r2_v1.2.,2013-06-24 00:07:00,
2013-06-23 19:13:00,79.5,68.4,29.78,North,360,1.0,2.0,69,0.00,,,0.70,169,HR-IXPWINDi_r2_v1.2.,2013-06-24 00:13:00,
2013-06-23 19:18:00,79.8,68.2,29.78,North,360,0.0,2.0,68,0.00,,,0.70,132,HR-IXPWINDi_r2_v1.2.,2013-06-24 00:18:00,
2013-06-23 19:23:00,79.8,68.2,29.78,North,360,1.0,2.0,68,0.00,,,0.70,93,HR-IXPWINDi_r2_v1.2.,2013-06-24 00:23:00,
2013-06-23 19:28:00,79.3,68.6,29.78,North,360,1.0,4.0,70,0.00,,,0.70,125,HR-IXPWINDi_r2_v1.2.,2013-06-24 00:28:00,
2013-06-23 19:33:00,79.3,68.6,29.77,North,360,0.0,4.0,70,0.00,,,0.70,155,HR-IXPWINDi_r2_v1.2.,2013-06-24 00:33:00,
2013-06-23 19:39:00,79.3,69.0,29.78,North,360,0.0,3.0,71,0.00,,,0.70,123,HR-IXPWINDi_r2_v1.2.,2013-06-24 00:39:00,
2013-06-23 19:44:00,79.3,69.0,29.78,North,360,1.0,3.0,71,0.00,,,0.70,102,HR-IXPWINDi_r2_v1.2.,2013-06-24 00:44:00,
2013-06-23 19:49:00,79.1,68.8,29.78,North,360,1.0,3.0,71,0.00,,,0.70,98,HR-IXPWINDi_r2_v1.2.,2013-06-24 00:49:00,
2013-06-23 19:54:00,78.9,69.1,29.78,North,360,1.0,4.0,72,0.00,,,0.70,104,HR-IXPWINDi_r2_v1.2.,2013-06-24 00:54:00,
2013-06-23 20:00:00,78.9,69.1,29.78,North,360,2.0,4.0,72,0.00,,,0.70,93,HR-IXPWINDi_r2_v1.2.,2013-06-24 01:00:00,
2013-06-23 20:05:00,78.8,69.0,29.78,North,360,1.0,4.0,72,0.00,,,0.70,77,HR-IXPWINDi_r2_v1.2.,2013-06-24 01:05:00,
2013-06-23 20:10:00,78.7,68.9,29.77,North,360,2.0,4.0,72,0.00,,,0.70,62,HR-IXPWINDi_r2_v1.2.,2013-06-24 01:10:00,
2013-06-23 20:15:00,78.5,68.7,29.78,North,360,3.0,3.0,72,0.00,,,0.70,42,HR-IXPWINDi_r2_v1.2.,2013-06-24 01:15:00,
2013-06-23 20:21:00,78.5,69.1,29.78,North,360,2.0,4.0,73,0.00,,,0.70,40,HR-IXPWINDi_r2_v1.2.,2013-06-24 01:21:00,
2013-06-23 20:26:00,78.3,68.9,29.78,North,360,1.0,4.0,73,0.00,,,0.70,30,HR-IXPWINDi_r2_v1.2.,2013-06-24 01:26:00,
2013-06-23 20:31:00,78.2,70.0,29.78,North,360,0.0,3.0,76,0.00,,,0.70,18,HR-IXPWINDi_r2_v1.2.,2013-06-24 01:31:00,
2013-06-23 20:36:00,78.0,70.1,29.78,North,360,2.0,4.0,77,0.00,,,0.70,18,HR-IXPWINDi_r2_v1.2.,2013-06-24 01:36:00,
2013-06-23 20:42:00,77.8,70.0,29.79,North,360,2.0,4.0,77,0.00,,,0.70,12,HR-IXPWINDi_r2_v1.2.,2013-06-24 01:42:00,
2013-06-23 20:47:00,77.8,70.0,29.79,North,360,1.0,3.0,77,0.00,,,0.70,11,HR-IXPWINDi_r2_v1.2.,2013-06-24 01:47:00,
2013-06-23 20:52:00,77.7,70.2,29.79,North,360,1.0,3.0,78,0.00,,,0.70,16,HR-IXPWINDi_r2_v1.2.,2013-06-24 01:52:00,
2013-06-23 20:57:00,77.6,70.1,29.79,North,360,1.0,3.0,78,0.00,,,0.70,14,HR-IXPWINDi_r2_v1.2.,2013-06-24 01:57:00,
2013-06-23 21:03:00,77.5,70.0,29.78,North,360,1.0,4.0,78,0.00,,,0.70,11,HR-IXPWINDi_r2_v1.2.,2013-06-24 02:03:00,
2013-06-23 21:08:00,77.5,70.4,29.79,North,360,2.0,4.0,79,0.00,,,0.70,12,HR-IXPWINDi_r2_v1.2.,2013-06-24 02:08:00,
2013-06-23 21:13:00,77.4,70.3,29.79,North,360,4.0,4.0,79,0.00,,,0.70,9,HR-IXPWINDi_r2_v1.2.,2013-06-24 02:13:00,
2013-06-23 21:18:00,77.3,70.2,29.80,North,360,1.0,5.0,79,0.00,,,0.70,0,HR-IXPWINDi_r2_v1.2.,2013-06-24 02:18:00,
2013-06-23 21:23:00,77.2,70.5,29.80,North,360,3.0,5.0,80,0.00,,,0.70,0,HR-IXPWINDi_r2_v1.2.,2013-06-24 02:23:00,
2013-06-23 21:29:00,77.2,70.1,29.80,North,360,1.0,6.0,79,0.00,,,0.70,0,HR-IXPWINDi_r2_v1.2.,2013-06-24 02:29:00,
2013-06-23 21:34:00,77.1,70.0,29.80,North,360,3.0,6.0,79,0.00,,,0.70,0,HR-IXPWINDi_r2_v1.2.,2013-06-24 02:34:00,
2013-06-23 21:39:00,76.9,69.8,29.81,North,360,0.0,5.0,79,0.00,,,0.70,0,HR-IXPWINDi_r2_v1.2.,2013-06-24 02:39:00,
2013-06-23 21:44:00,76.9,69.8,29.81,North,360,3.0,6.0,79,0.00,,,0.70,0,HR-IXPWINDi_r2_v1.2.,2013-06-24 02:44:00,
2013-06-23 21:49:00,76.7,70.0,29.80,North,360,0.0,6.0,80,0.00,,,0.70,0,HR-IXPWINDi_r2_v1.2.,2013-06-24 02:49:00,
2013-06-23 21:54:00,76.7,70.4,29.80,North,360,3.0,6.0,81,0.00,,,0.70,0,HR-IXPWINDi_r2_v1.2.,2013-06-24 02:54:00,
2013-06-23 22:00:00,76.5,70.2,29.80,North,360,2.0,5.0,81,0.00,,,0.70,0,HR-IXPWINDi_r2_v1.2.,2013-06-24 03:00:00,
2013-06-23 22:05:00,76.3,70.0,29.81,North,360,3.0,5.0,81,0.00,,,0.70,0,HR-IXPWINDi_r2_v1.2.,2013-06-24 03:05:00,
2013-06-23 22:10:00,76.3,70.3,29.81,North,360,3.0,6.0,82,0.00,,,0.70,0,HR-IXPWINDi_r2_v1.2.,2013-06-24 03:10:00,
2013-06-23 22:15:00,76.3,70.0,29.82,North,360,3.0,6.0,81,0.00,,,0.70,0,HR-IXPWINDi_r2_v1.2.,2013-06-24 03:15:00,
2013-06-23 22:20:00,76.3,70.0,29.82,North,360,3.0,5.0,81,0.00,,,0.70,0,HR-IXPWINDi_r2_v1.2.,2013-06-24 03:20:00,
2013-06-23 22:25:00,76.2,69.9,29.82,North,360,1.0,5.0,81,0.00,,,0.70,0,HR-IXPWINDi_r2_v1.2.,2013-06-24 03:25:00,
2013-06-23 22:30:00,76.1,69.8,29.82,North,360,4.0,5.0,81,0.00,,,0.70,0,HR-IXPWINDi_r2_v1.2.,2013-06-24 03:30:00,
2013-06-23 22:35:00,76.1,69.8,29.82,North,360,3.0,5.0,81,0.00,,,0.70,0,HR-IXPWINDi_r2_v1.2.,2013-06-24 03:35:00,
2013-06-23 22:41:00,76.1,69.8,29.82,North,360,2.0,5.0,81,0.00,,,0.70,0,HR-IXPWINDi_r2_v1.2.,2013-06-24 03:41:00,
2013-06-23 22:46:00,76.1,69.8,29.82,North,360,4.0,5.0,81,0.00,,,0.70,0,HR-IXPWINDi_r2_v1.2.,2013-06-24 03:46:00,
2013-06-23 22:51:00,76.1,69.8,29.82,North,360,1.0,5.0,81,0.00,,,0.70,0,HR-IXPWINDi_r2_v1.2.,2013-06-24 03:51:00,
2013-06-23 22:56:00,76.1,70.1,29.82,North,360,0.0,5.0,82,0.00,,,0.70,0,HR-IXPWINDi_r2_v1.2.,2013-06-24 03:56:00,
2013-06-23 23:01:00,76.0,70.0,29.82,North,360,2.0,4.0,82,0.00,,,0.70,0,HR-IXPWINDi_r2_v1.2.,2013-06-24 04:01:00,
2013-06-23 23:06:00,76.0,70.0,29.82,North,360,0.0,4.0,82,0.00,,,0.70,0,HR-IXPWINDi_r2_v1.2.,2013-06-24 04:06:00,
2013-06-23 23:11:00,76.0,70.0,29.82,North,360,1.0,3.0,82,0.00,,,0.70,0,HR-IXPWINDi_r2_v1.2.,2013-06-24 04:11:00,
2013-06-23 23:16:00,76.0,70.0,29.82,North,360,4.0,4.0,82,0.00,,,0.70,0,HR-IXPWINDi_r2_v1.2.,2013-06-24 04:16:00,
2013-06-23 23:21:00,76.1,70.1,29.82,North,360,3.0,5.0,82,0.00,,,0.70,0,HR-IXPWINDi_r2_v1.2.,2013-06-24 04:21:00,
2013-06-23 23:27:00,76.0,70.0,29.82,North,360,4.0,6.0,82,0.00,,,0.70,0,HR-IXPWINDi_r2_v1.2.,2013-06-24 04:27:00,
2013-06-23 23:32:00,75.9,70.0,29.82,North,360,3.0,6.0,82,0.00,,,0.70,0,HR-IXPWINDi_r2_v1.2.,2013-06-24 04:32:00,
2013-06-23 23:37:00,75.8,70.2,29.81,North,360,3.0,6.0,83,0.00,,,0.70,0,HR-IXPWINDi_r2_v1.2.,2013-06-24 04:37:00,
2013-06-23 23:42:00,75.8,70.2,29.81,North,360,1.0,6.0,83,0.00,,,0.70,0,HR-IXPWINDi_r2_v1.2.,2013-06-24 04:42:00,
2013-06-23 23:48:00,75.8,70.6,29.81,North,360,1.0,4.0,84,0.00,,,0.70,0,HR-IXPWINDi_r2_v1.2.,2013-06-24 04:48:00,
2013-06-23 23:53:00,75.7,70.5,29.81,North,360,2.0,4.0,84,0.00,,,0.70,0,HR-IXPWINDi_r2_v1.2.,2013-06-24 04:53:00,
2013-06-23 23:58:00,75.6,70.7,29.81,North,360,3.0,5.0,85,0.00,,,0.70,0,HR-IXPWINDi_r2_v1.2.,2013-06-24 04:58:00,